Time;durP1;ratioP1;P1;durP2;ratioP2;P2;SDS_P1;SDS_P2;PMS_P1;PMS_P2;Temp;Humidity;BMP_temperature;BMP_pressure;BME280_temperature;BME280_humidity;BME280_pressure;Samples;Min_cycle;Max_cycle;Signal;HPM_P1;HPM_P2
2023/03/28 00:01:07;;;;;;;;;;;4.10;99.90;;;;;;7354705;19;109362;-93
2023/03/28 00:03:38;;;;;;;;;;;4.10;99.90;;;;;;7349861;19;108617;-93
2023/03/28 00:06:08;;;;;;;;;;;4.10;99.90;;;;;;7349289;19;109107;-93
2023/03/28 00:08:38;;;;;;;;;;;4.00;99.90;;;;;;7347525;19;108818;-96
2023/03/28 00:11:07;;;;;;;;;;;4.00;99.90;;;;;;7347933;19;108316;-94
2023/03/28 00:13:35;;;;;;;;;;;4.00;99.90;;;;;;7346393;19;110513;-95
2023/03/28 00:16:04;;;;;;;;;;;4.00;99.90;;;;;;7347016;19;112246;-93
2023/03/28 00:18:36;;;;;;;;;;;3.90;99.90;;;;;;7346402;19;108552;-95
2023/03/28 00:21:18;;;;;;;;;;;3.90;99.90;;;;;;7348599;19;111961;-93
2023/03/28 00:23:45;;;;;;;;;;;3.90;99.90;;;;;;7352724;19;113692;-94
2023/03/28 00:26:12;;;;;;;;;;;3.90;99.90;;;;;;7348549;19;112046;-94
2023/03/28 00:28:41;;;;;;;;;;;3.90;99.90;;;;;;7347917;19;111451;-93
2023/03/28 00:31:08;;;;;;;;;;;3.80;99.90;;;;;;7348785;19;108884;-94
2023/03/28 00:33:35;;;;;;;;;;;3.80;99.90;;;;;;7347296;19;110000;-93
2023/03/28 00:36:02;;;;;;;;;;;3.80;99.90;;;;;;7348084;19;112985;-93
2023/03/28 00:38:30;;;;;;;;;;;3.70;99.90;;;;;;7346747;19;108679;-93
2023/03/28 00:40:58;;;;;;;;;;;3.70;99.90;;;;;;7349214;19;108597;-93
2023/03/28 00:43:36;;;;;;;;;;;3.70;99.90;;;;;;7343855;19;112825;-93
2023/03/28 00:46:09;;;;;;;;;;;3.70;99.90;;;;;;7350743;19;109394;-94
2023/03/28 00:48:37;;;;;;;;;;;3.70;99.90;;;;;;7345161;19;109595;-92
2023/03/28 00:51:04;;;;;;;;;;;3.60;99.90;;;;;;7348473;19;109116;-94
2023/03/28 00:53:32;;;;;;;;;;;3.60;99.90;;;;;;7345632;19;111661;-94
2023/03/28 00:56:04;;;;;;;;;;;3.60;99.90;;;;;;7348085;19;111734;-94
2023/03/28 00:58:33;;;;;;;;;;;3.60;99.90;;;;;;7349358;19;108322;-93
2023/03/28 01:01:00;;;;;;;;;;;3.50;99.90;;;;;;7352269;19;109456;-92
2023/03/28 01:03:32;;;;;;;;;;;3.50;99.90;;;;;;7350671;19;110701;-92
2023/03/28 01:06:03;;;;;;;;;;;3.50;99.90;;;;;;7353586;19;108615;-92
2023/03/28 01:08:33;;;;;;;;;;;3.50;99.90;;;;;;7359898;19;110831;-93
2023/03/28 01:11:00;;;;;;;;;;;3.40;99.90;;;;;;7354214;19;108374;-92
2023/03/28 01:13:32;;;;;;;;;;;3.40;99.90;;;;;;7351042;19;110318;-92
2023/03/28 01:16:01;;;;;;;;;;;3.40;99.90;;;;;;7353797;19;110698;-92
2023/03/28 01:18:33;;;;;;;;;;;3.30;99.90;;;;;;7351662;19;109562;-92
2023/03/28 01:21:19;;;;;;;;;;;3.30;99.90;;;;;;7356421;19;110328;-91
2023/03/28 01:23:58;;;;;;;;;;;3.30;99.90;;;;;;7353776;19;110560;-92
2023/03/28 01:26:39;;;;;;;;;;;3.20;99.90;;;;;;7354606;19;108273;-92
2023/03/28 01:29:25;;;;;;;;;;;3.10;99.90;;;;;;7362267;19;108488;-92
2023/03/28 01:32:10;;;;;;;;;;;3.10;99.90;;;;;;7356543;19;108586;-93
2023/03/28 01:34:40;;;;;;;;;;;3.00;99.90;;;;;;7359972;19;111947;-94
2023/03/28 01:37:07;;;;;;;;;;;3.00;99.90;;;;;;7359259;19;112993;-92
2023/03/28 01:39:46;;;;;;;;;;;3.00;99.90;;;;;;7361302;19;108162;-93
2023/03/28 01:42:23;;;;;;;;;;;3.00;99.90;;;;;;7357545;19;109945;-92
2023/03/28 01:45:16;;;;;;;;;;;3.00;99.90;;;;;;7363874;19;112678;-92
2023/03/28 01:47:47;;;;;;;;;;;2.90;99.90;;;;;;7372456;19;108413;-94
2023/03/28 01:50:24;;;;;;;;;;;2.90;99.90;;;;;;7375934;19;110452;-94
2023/03/28 01:52:58;;;;;;;;;;;2.90;99.90;;;;;;7381331;19;111581;-93
2023/03/28 01:55:29;;;;;;;;;;;2.80;99.90;;;;;;7374907;19;110478;-93
2023/03/28 01:58:16;;;;;;;;;;;2.80;99.90;;;;;;7373619;19;108830;-93
2023/03/28 02:00:46;;;;;;;;;;;2.80;99.90;;;;;;7376890;19;107683;-93
2023/03/28 02:03:13;;;;;;;;;;;2.80;99.90;;;;;;7374592;19;108974;-94
2023/03/28 02:05:41;;;;;;;;;;;2.80;99.90;;;;;;7368144;19;111547;-94
2023/03/28 02:08:09;;;;;;;;;;;2.80;99.90;;;;;;7347615;19;110193;-93
2023/03/28 02:10:39;;;;;;;;;;;2.80;99.90;;;;;;7348794;19;108386;-94
2023/03/28 02:13:13;;;;;;;;;;;2.80;99.90;;;;;;7349348;19;111615;-93
2023/03/28 02:15:41;;;;;;;;;;;2.80;99.90;;;;;;7354596;19;108809;-93
2023/03/28 02:18:14;;;;;;;;;;;2.70;99.90;;;;;;7350046;19;112474;-93
2023/03/28 02:20:43;;;;;;;;;;;2.70;99.90;;;;;;7345819;19;108456;-92
2023/03/28 02:23:14;;;;;;;;;;;2.70;99.90;;;;;;7349689;19;109087;-93
2023/03/28 02:25:41;;;;;;;;;;;2.70;99.90;;;;;;7346315;19;108859;-92
2023/03/28 02:28:09;;;;;;;;;;;2.70;99.90;;;;;;7346569;19;108992;-92
2023/03/28 02:30:37;;;;;;;;;;;2.70;99.90;;;;;;7348419;19;108952;-92
2023/03/28 02:33:07;;;;;;;;;;;2.70;99.90;;;;;;7345824;19;110062;-92
2023/03/28 02:35:58;;;;;;;;;;;2.70;99.90;;;;;;7346559;19;108294;-93
2023/03/28 02:38:25;;;;;;;;;;;2.60;99.90;;;;;;7352132;19;110473;-92
2023/03/28 02:40:59;;;;;;;;;;;2.60;99.90;;;;;;7346239;19;109060;-91
2023/03/28 02:43:26;;;;;;;;;;;2.60;99.90;;;;;;7347314;19;111965;-92
2023/03/28 02:46:08;;;;;;;;;;;2.60;99.90;;;;;;7345155;19;110267;-93
2023/03/28 02:48:57;;;;;;;;;;;2.60;99.90;;;;;;7347465;19;108685;-92
2023/03/28 02:51:33;;;;;;;;;;;2.50;99.90;;;;;;7345126;19;109248;-93
2023/03/28 02:54:08;;;;;;;;;;;2.50;99.90;;;;;;7347227;19;111800;-92
2023/03/28 02:56:38;;;;;;;;;;;2.50;99.90;;;;;;7344440;19;108946;-93
2023/03/28 02:59:15;;;;;;;;;;;2.40;99.90;;;;;;7345260;19;110458;-92
2023/03/28 03:01:43;;;;;;;;;;;2.40;99.90;;;;;;7351091;19;110335;-93
2023/03/28 03:04:12;;;;;;;;;;;2.40;99.90;;;;;;7346601;19;109162;-92
2023/03/28 03:06:39;;;;;;;;;;;2.40;99.90;;;;;;7345858;19;112579;-94
2023/03/28 03:09:07;;;;;;;;;;;2.40;99.90;;;;;;7347090;19;108909;-93
2023/03/28 03:11:34;;;;;;;;;;;2.40;99.90;;;;;;7344978;19;111279;-93
2023/03/28 03:14:01;;;;;;;;;;;2.40;99.90;;;;;;7344445;19;111540;-93
2023/03/28 03:16:28;;;;;;;;;;;2.40;99.90;;;;;;7346567;19;108649;-93
2023/03/28 03:18:58;;;;;;;;;;;2.30;99.90;;;;;;7344620;19;111857;-92
2023/03/28 03:21:26;;;;;;;;;;;2.30;99.90;;;;;;7343672;19;112267;-92
2023/03/28 03:23:53;;;;;;;;;;;2.30;99.90;;;;;;7350439;19;108298;-92
2023/03/28 03:26:21;;;;;;;;;;;2.30;99.90;;;;;;7346317;19;109378;-92
2023/03/28 03:28:48;;;;;;;;;;;2.30;99.90;;;;;;7345626;19;108429;-93
2023/03/28 03:31:16;;;;;;;;;;;2.20;99.90;;;;;;7346019;19;108517;-91
2023/03/28 03:33:43;;;;;;;;;;;2.30;99.90;;;;;;7346007;19;109900;-92
2023/03/28 03:36:11;;;;;;;;;;;2.20;99.90;;;;;;7347746;19;109380;-92
2023/03/28 03:38:38;;;;;;;;;;;2.20;99.90;;;;;;7347078;19;111636;-92
2023/03/28 03:41:05;;;;;;;;;;;2.20;99.90;;;;;;7348207;19;110365;-92
2023/03/28 03:43:33;;;;;;;;;;;2.10;99.90;;;;;;7350945;19;108672;-92
2023/03/28 03:46:01;;;;;;;;;;;2.10;99.90;;;;;;7345172;19;112371;-92
2023/03/28 03:48:29;;;;;;;;;;;2.10;99.90;;;;;;7345032;19;108909;-93
2023/03/28 03:50:56;;;;;;;;;;;2.10;99.90;;;;;;7346210;19;109104;-92
2023/03/28 03:53:23;;;;;;;;;;;2.10;99.90;;;;;;7344991;19;111635;-94
2023/03/28 03:55:50;;;;;;;;;;;2.00;99.90;;;;;;7347861;19;108854;-93
2023/03/28 03:58:18;;;;;;;;;;;2.00;99.90;;;;;;7345414;19;110797;-94
2023/03/28 04:00:47;;;;;;;;;;;2.00;99.90;;;;;;7344188;19;110453;-93
2023/03/28 04:03:15;;;;;;;;;;;1.90;99.90;;;;;;7346715;19;108565;-93
2023/03/28 04:05:51;;;;;;;;;;;1.90;99.90;;;;;;7350292;19;111739;-93
2023/03/28 04:08:19;;;;;;;;;;;1.90;99.90;;;;;;7344595;19;109146;-93
2023/03/28 04:10:46;;;;;;;;;;;1.90;99.90;;;;;;7344725;19;109666;-94
2023/03/28 04:13:13;;;;;;;;;;;1.90;99.90;;;;;;7343803;19;112129;-93
2023/03/28 04:15:40;;;;;;;;;;;1.90;99.90;;;;;;7343240;19;108568;-93
2023/03/28 04:18:07;;;;;;;;;;;1.80;99.90;;;;;;7345196;19;110497;-93
2023/03/28 04:20:35;;;;;;;;;;;1.80;99.90;;;;;;7345761;19;113579;-93
2023/03/28 04:23:04;;;;;;;;;;;1.80;99.90;;;;;;7351889;19;108854;-92
2023/03/28 04:25:32;;;;;;;;;;;1.80;99.90;;;;;;7350813;19;111891;-93
2023/03/28 04:28:00;;;;;;;;;;;1.70;99.90;;;;;;7358171;19;110406;-93
2023/03/28 04:30:28;;;;;;;;;;;1.70;99.90;;;;;;7349976;19;111975;-93
2023/03/28 04:32:55;;;;;;;;;;;1.70;99.90;;;;;;7349359;19;111863;-93
2023/03/28 04:35:22;;;;;;;;;;;1.70;99.90;;;;;;7351994;19;108616;-93
2023/03/28 04:37:50;;;;;;;;;;;1.60;99.90;;;;;;7351526;19;111487;-93
2023/03/28 04:40:17;;;;;;;;;;;1.60;99.90;;;;;;7352806;19;112670;-95
2023/03/28 04:42:44;;;;;;;;;;;1.60;99.90;;;;;;7353116;19;108635;-93
2023/03/28 04:45:11;;;;;;;;;;;1.60;99.90;;;;;;7345027;19;112288;-93
2023/03/28 04:47:41;;;;;;;;;;;1.50;99.90;;;;;;7345372;19;112699;-92
2023/03/28 04:50:09;;;;;;;;;;;1.50;99.90;;;;;;7373577;19;108409;-92
2023/03/28 04:52:36;;;;;;;;;;;1.50;99.90;;;;;;7377108;19;109439;-93
2023/03/28 04:55:04;;;;;;;;;;;1.50;99.90;;;;;;7377303;19;108515;-91
2023/03/28 04:57:31;;;;;;;;;;;1.50;99.90;;;;;;7378944;19;111752;-92
2023/03/28 04:59:58;;;;;;;;;;;1.50;99.90;;;;;;7378573;19;110981;-93
2023/03/28 05:02:25;;;;;;;;;;;1.40;99.90;;;;;;7361410;19;109317;-93
2023/03/28 05:04:52;;;;;;;;;;;1.40;99.90;;;;;;7350238;19;110501;-93
2023/03/28 05:07:19;;;;;;;;;;;1.40;99.90;;;;;;7349258;19;111628;-92
2023/03/28 05:09:46;;;;;;;;;;;1.40;99.90;;;;;;7351294;19;109148;-93
2023/03/28 05:12:14;;;;;;;;;;;1.40;99.90;;;;;;7358333;19;110166;-91
2023/03/28 05:14:42;;;;;;;;;;;1.40;99.90;;;;;;7352049;19;108485;-92
2023/03/28 05:17:09;;;;;;;;;;;1.40;99.90;;;;;;7349101;19;111146;-93
2023/03/28 05:19:36;;;;;;;;;;;1.30;99.90;;;;;;7348515;19;112099;-94
2023/03/28 05:22:03;;;;;;;;;;;1.30;99.90;;;;;;7351033;19;108295;-95
2023/03/28 05:24:30;;;;;;;;;;;1.30;99.90;;;;;;7351751;19;111575;-95
2023/03/28 05:26:59;;;;;;;;;;;1.30;99.90;;;;;;7349373;19;111448;-95
2023/03/28 05:29:26;;;;;;;;;;;1.30;99.90;;;;;;7348666;19;108658;-94
2023/03/28 05:31:54;;;;;;;;;;;1.30;99.90;;;;;;7352610;19;108905;-96
2023/03/28 05:34:24;;;;;;;;;;;1.30;99.90;;;;;;7349068;19;108320;-94
2023/03/28 05:36:51;;;;;;;;;;;1.30;99.90;;;;;;7348756;19;111289;-94
2023/03/28 05:39:18;;;;;;;;;;;1.30;99.90;;;;;;7347866;19;112519;-95
2023/03/28 05:41:45;;;;;;;;;;;1.60;99.90;;;;;;7352168;19;108158;-95
2023/03/28 05:44:12;;;;;;;;;;;2.00;99.90;;;;;;7346743;19;111836;-92
2023/03/28 05:46:41;;;;;;;;;;;2.00;99.90;;;;;;7349981;19;111538;-95
2023/03/28 05:49:11;;;;;;;;;;;1.90;99.90;;;;;;7350283;19;108689;-94
2023/03/28 05:51:42;;;;;;;;;;;1.80;99.90;;;;;;7351117;19;111607;-95
2023/03/28 05:54:09;;;;;;;;;;;1.70;99.90;;;;;;7356575;19;109482;-94
2023/03/28 05:56:36;;;;;;;;;;;1.60;99.90;;;;;;7347107;19;110608;-93
2023/03/28 05:59:03;;;;;;;;;;;1.60;99.90;;;;;;7346883;19;112683;-93
2023/03/28 06:01:31;;;;;;;;;;;1.60;99.90;;;;;;7346688;19;108685;-94
2023/03/28 06:03:58;;;;;;;;;;;1.60;99.90;;;;;;7347294;19;108960;-92
2023/03/28 06:06:26;;;;;;;;;;;1.60;99.90;;;;;;7342852;19;112671;-87
2023/03/28 06:08:53;;;;;;;;;;;1.60;99.90;;;;;;7339667;19;108914;-87
2023/03/28 06:11:20;;;;;;;;;;;1.60;99.90;;;;;;7342791;19;109774;-87
2023/03/28 06:13:47;;;;;;;;;;;1.70;99.90;;;;;;7340927;19;109671;-86
2023/03/28 06:16:14;;;;;;;;;;;1.70;99.90;;;;;;7347868;19;108931;-87
2023/03/28 06:18:56;;;;;;;;;;;1.80;99.90;;;;;;7338400;19;113055;-87
2023/03/28 06:21:40;;;;;;;;;;;1.80;99.90;;;;;;7338475;19;109083;-86
2023/03/28 06:24:08;;;;;;;;;;;1.90;99.90;;;;;;7341275;19;110336;-88
2023/03/28 06:26:35;;;;;;;;;;;1.90;99.90;;;;;;7338910;19;109167;-87
2023/03/28 06:29:03;;;;;;;;;;;2.00;99.90;;;;;;7339788;19;108634;-87
2023/03/28 06:31:30;;;;;;;;;;;2.10;99.90;;;;;;7342987;19;109875;-87
2023/03/28 06:33:57;;;;;;;;;;;2.20;99.90;;;;;;7339548;19;109415;-87
2023/03/28 06:36:24;;;;;;;;;;;2.30;99.90;;;;;;7340781;19;109890;-87
2023/03/28 06:38:52;;;;;;;;;;;2.30;99.90;;;;;;7344328;19;109447;-88
2023/03/28 06:41:19;;;;;;;;;;;2.30;99.90;;;;;;7339941;19;108599;-87
2023/03/28 06:43:46;;;;;;;;;;;2.40;99.90;;;;;;7338719;19;112155;-88
2023/03/28 06:46:15;;;;;;;;;;;2.50;99.90;;;;;;7342506;19;108834;-89
2023/03/28 06:48:42;;;;;;;;;;;2.50;99.90;;;;;;7342754;19;110155;-87
2023/03/28 06:51:11;;;;;;;;;;;2.50;99.90;;;;;;7341115;19;110401;-89
2023/03/28 06:53:38;;;;;;;;;;;2.60;99.90;;;;;;7340096;19;112894;-89
2023/03/28 06:56:06;;;;;;;;;;;2.70;99.90;;;;;;7344594;19;108536;-89
2023/03/28 06:58:33;;;;;;;;;;;2.70;99.90;;;;;;7340306;19;111045;-90
2023/03/28 07:01:00;;;;;;;;;;;2.80;99.90;;;;;;7349113;19;109339;-88
2023/03/28 07:03:28;;;;;;;;;;;2.90;99.90;;;;;;7346066;19;110152;-89
2023/03/28 07:05:56;;;;;;;;;;;2.90;99.90;;;;;;7341238;19;116770;-88
2023/03/28 07:08:23;;;;;;;;;;;2.90;99.90;;;;;;7342223;19;108422;-89
2023/03/28 07:10:50;;;;;;;;;;;3.00;99.90;;;;;;7342883;19;109375;-89
2023/03/28 07:13:17;;;;;;;;;;;3.10;99.90;;;;;;7342537;19;112803;-88
2023/03/28 07:15:44;;;;;;;;;;;3.20;99.90;;;;;;7343110;19;108832;-89
2023/03/28 07:18:11;;;;;;;;;;;3.30;99.90;;;;;;7341168;19;111947;-89
2023/03/28 07:20:38;;;;;;;;;;;3.40;99.90;;;;;;7340716;19;112363;-89
2023/03/28 07:23:06;;;;;;;;;;;3.50;99.90;;;;;;7347909;19;108601;-87
2023/03/28 07:25:33;;;;;;;;;;;3.60;99.90;;;;;;7341352;19;110949;-89
2023/03/28 07:28:00;;;;;;;;;;;3.70;99.90;;;;;;7341452;19;108484;-89
2023/03/28 07:30:28;;;;;;;;;;;3.80;99.90;;;;;;7342184;19;109526;-88
2023/03/28 07:32:55;;;;;;;;;;;3.90;99.90;;;;;;7343798;19;111978;-90
2023/03/28 07:35:40;;;;;;;;;;;4.00;99.90;;;;;;7345715;19;108834;-92
2023/03/28 07:38:08;;;;;;;;;;;4.10;99.90;;;;;;7344480;19;109384;-90
2023/03/28 07:40:35;;;;;;;;;;;4.10;99.90;;;;;;7345138;19;109303;-90
2023/03/28 07:43:02;;;;;;;;;;;4.10;99.90;;;;;;7348417;19;108881;-88
2023/03/28 07:45:30;;;;;;;;;;;4.20;99.90;;;;;;7342973;19;109016;-89
2023/03/28 07:47:57;;;;;;;;;;;4.30;99.90;;;;;;7347231;19;108815;-90
2023/03/28 07:50:24;;;;;;;;;;;4.40;99.90;;;;;;7344246;19;110442;-88
2023/03/28 07:52:56;;;;;;;;;;;4.50;99.90;;;;;;7337453;19;109842;-89
2023/03/28 07:55:24;;;;;;;;;;;4.50;99.90;;;;;;7342124;19;108634;-89
2023/03/28 07:57:52;;;;;;;;;;;4.60;99.90;;;;;;7351132;19;109338;-89
2023/03/28 08:00:22;;;;;;;;;;;4.70;99.90;;;;;;7374942;19;111753;-88
2023/03/28 08:02:50;;;;;;;;;;;4.80;99.90;;;;;;7379189;19;108595;-89
2023/03/28 08:05:17;;;;;;;;;;;5.00;99.90;;;;;;7386624;19;108660;-89
2023/03/28 08:07:46;;;;;;;;;;;5.10;99.90;;;;;;7379834;19;107969;-89
2023/03/28 08:10:13;;;;;;;;;;;5.20;99.90;;;;;;7379427;19;108365;-88
2023/03/28 08:12:41;;;;;;;;;;;5.30;99.90;;;;;;7379566;19;109279;-87
2023/03/28 08:15:09;;;;;;;;;;;5.40;99.90;;;;;;7372781;19;108199;-90
2023/03/28 08:17:36;;;;;;;;;;;5.50;99.90;;;;;;7374336;19;108377;-89
2023/03/28 08:20:07;;;;;;;;;;;5.70;99.90;;;;;;7376552;19;108574;-89
2023/03/28 08:22:34;;;;;;;;;;;5.80;99.90;;;;;;7360819;19;110102;-89
2023/03/28 08:25:02;;;;;;;;;;;5.90;99.90;;;;;;7349788;19;108848;-90
2023/03/28 08:27:29;;;;;;;;;;;6.00;99.90;;;;;;7351573;19;109960;-87
2023/03/28 08:29:56;;;;;;;;;;;6.10;99.90;;;;;;7342367;19;111110;-88
2023/03/28 08:32:24;;;;;;;;;;;6.20;99.90;;;;;;7342701;19;112479;-89
2023/03/28 08:34:51;;;;;;;;;;;6.30;99.90;;;;;;7346629;19;108745;-89
2023/03/28 08:37:23;;;;;;;;;;;6.40;99.90;;;;;;7345878;19;111722;-90
2023/03/28 08:39:50;;;;;;;;;;;6.50;99.90;;;;;;7349756;19;109943;-89
2023/03/28 08:42:17;;;;;;;;;;;6.50;99.90;;;;;;7352682;19;108137;-90
2023/03/28 08:45:00;;;;;;;;;;;6.60;99.90;;;;;;7348837;19;111654;-90
2023/03/28 08:47:28;;;;;;;;;;;6.70;99.90;;;;;;7343019;19;112230;-89
2023/03/28 08:50:00;;;;;;;;;;;6.80;99.90;;;;;;7349762;19;108771;-90
2023/03/28 08:52:28;;;;;;;;;;;6.80;99.90;;;;;;7345235;19;110338;-90
2023/03/28 08:54:58;;;;;;;;;;;6.90;99.90;;;;;;7342880;19;108554;-87
2023/03/28 08:57:28;;;;;;;;;;;7.00;99.90;;;;;;7346117;19;108304;-89
2023/03/28 08:59:55;;;;;;;;;;;7.10;99.90;;;;;;7341662;19;110515;-89
2023/03/28 09:02:25;;;;;;;;;;;7.10;99.90;;;;;;7346841;19;109680;-89
2023/03/28 09:04:53;;;;;;;;;;;7.20;99.90;;;;;;7342018;19;109039;-90
2023/03/28 09:07:46;;;;;;;;;;;7.30;99.90;;;;;;7339825;19;108990;-87
2023/03/28 09:10:25;;;;;;;;;;;7.40;99.90;;;;;;7346206;19;108551;-91
2023/03/28 09:13:02;;;;;;;;;;;7.50;99.90;;;;;;7352548;19;110649;-92
2023/03/28 09:15:34;;;;;;;;;;;7.70;99.90;;;;;;7345480;19;108933;-94
2023/03/28 09:18:07;;;;;;;;;;;7.80;99.90;;;;;;7345494;19;111013;-93
2023/03/28 09:20:46;;;;;;;;;;;8.00;99.90;;;;;;7344166;19;112917;-92
2023/03/28 09:23:16;;;;;;;;;;;8.10;99.90;;;;;;7345528;19;109561;-93
2023/03/28 09:25:52;;;;;;;;;;;8.20;99.90;;;;;;7346512;19;109391;-92
2023/03/28 09:28:22;;;;;;;;;;;8.30;99.90;;;;;;7348248;19;109163;-92
2023/03/28 09:30:50;;;;;;;;;;;8.40;99.90;;;;;;7346362;19;108370;-91
2023/03/28 09:33:21;;;;;;;;;;;8.50;99.90;;;;;;7346826;19;109539;-92
2023/03/28 09:35:49;;;;;;;;;;;8.60;99.90;;;;;;7349491;19;109810;-92
2023/03/28 09:38:32;;;;;;;;;;;8.70;99.90;;;;;;7348239;19;109196;-91
2023/03/28 09:41:03;;;;;;;;;;;8.80;99.90;;;;;;7343775;19;112908;-91
2023/03/28 09:43:33;;;;;;;;;;;8.90;99.90;;;;;;7346642;19;108385;-92
2023/03/28 09:46:05;;;;;;;;;;;9.00;99.90;;;;;;7345927;19;111250;-92
2023/03/28 09:48:34;;;;;;;;;;;9.00;99.90;;;;;;7346206;19;108478;-91
2023/03/28 09:51:02;;;;;;;;;;;9.10;99.90;;;;;;7344755;19;108685;-92
2023/03/28 09:53:31;;;;;;;;;;;9.20;99.90;;;;;;7344150;19;111278;-91
2023/03/28 09:56:02;;;;;;;;;;;9.30;99.90;;;;;;7350320;19;112634;-92
2023/03/28 09:58:46;;;;;;;;;;;9.50;99.90;;;;;;7342966;19;111753;-92
2023/03/28 10:01:22;;;;;;;;;;;9.40;99.90;;;;;;7343226;19;112956;-92
2023/03/28 10:03:53;;;;;;;;;;;9.60;99.90;;;;;;7344396;19;108453;-92
2023/03/28 10:06:25;;;;;;;;;;;9.60;99.90;;;;;;7340045;19;111317;-89
2023/03/28 10:09:07;;;;;;;;;;;9.60;99.90;;;;;;7342420;19;113855;-91
2023/03/28 10:12:04;;;;;;;;;;;9.80;99.90;;;;;;7343242;19;108465;-91
2023/03/28 10:14:34;;;;;;;;;;;9.90;99.90;;;;;;7339745;19;111091;-89
2023/03/28 10:17:06;;;;;;;;;;;10.00;99.90;;;;;;7340027;19;110479;-89
2023/03/28 10:19:34;;;;;;;;;;;10.10;99.90;;;;;;7344080;19;108509;-90
2023/03/28 10:22:06;;;;;;;;;;;10.20;99.90;;;;;;7340130;19;110338;-90
2023/03/28 10:24:34;;;;;;;;;;;10.40;99.90;;;;;;7339957;19;108935;-89
2023/03/28 10:27:19;;;;;;;;;;;10.60;99.90;;;;;;7341845;19;109265;-89
2023/03/28 10:29:47;;;;;;;;;;;10.80;99.90;;;;;;7337900;19;114332;-90
2023/03/28 10:32:22;;;;;;;;;;;10.80;99.90;;;;;;7341062;19;108889;-89
2023/03/28 10:35:06;;;;;;;;;;;10.80;99.90;;;;;;7340368;19;112159;-89
2023/03/28 10:37:33;;;;;;;;;;;10.80;99.90;;;;;;7337939;19;110787;-89
2023/03/28 10:40:28;;;;;;;;;;;10.90;99.90;;;;;;7341223;19;109760;-90
2023/03/28 10:42:56;;;;;;;;;;;11.00;99.90;;;;;;7344991;19;109935;-91
2023/03/28 10:45:29;;;;;;;;;;;11.10;99.90;;;;;;7340439;19;108661;-90
2023/03/28 10:47:58;;;;;;;;;;;11.10;99.90;;;;;;7339597;19;111256;-90
2023/03/28 10:50:27;;;;;;;;;;;11.20;99.90;;;;;;7337905;19;112332;-90
2023/03/28 10:53:09;;;;;;;;;;;11.30;99.90;;;;;;7338988;19;108692;-92
2023/03/28 10:55:39;;;;;;;;;;;11.30;99.90;;;;;;7339375;19;111684;-89
2023/03/28 10:58:15;;;;;;;;;;;11.40;99.90;;;;;;7341279;19;110289;-88
2023/03/28 11:01:01;;;;;;;;;;;11.60;99.90;;;;;;7341047;19;110503;-90
2023/03/28 11:03:37;;;;;;;;;;;11.70;99.90;;;;;;7343366;19;109086;-90
2023/03/28 11:06:10;;;;;;;;;;;11.70;99.90;;;;;;7346096;19;110280;-89
2023/03/28 11:08:56;;;;;;;;;;;11.70;99.90;;;;;;7340679;19;108385;-89
2023/03/28 11:11:43;;;;;;;;;;;11.80;99.90;;;;;;7339765;19;112056;-90
2023/03/28 11:14:13;;;;;;;;;;;11.80;99.90;;;;;;7340669;19;108794;-90
2023/03/28 11:16:43;;;;;;;;;;;11.80;99.90;;;;;;7341693;19;112471;-91
2023/03/28 11:19:29;;;;;;;;;;;11.80;99.90;;;;;;7340067;19;110609;-89
2023/03/28 11:22:02;;;;;;;;;;;11.80;99.90;;;;;;7339105;19;109597;-88
2023/03/28 11:24:29;;;;;;;;;;;11.80;99.90;;;;;;7339671;19;110467;-88
2023/03/28 11:27:05;;;;;;;;;;;11.80;99.90;;;;;;7340187;19;112459;-89
2023/03/28 11:29:56;;;;;;;;;;;11.90;99.90;;;;;;7344687;19;111163;-88
2023/03/28 11:32:27;;;;;;;;;;;11.90;99.90;;;;;;7339308;19;110555;-87
2023/03/28 11:35:01;;;;;;;;;;;12.10;99.90;;;;;;7340105;19;108563;-89
2023/03/28 11:37:38;;;;;;;;;;;12.20;99.90;;;;;;7338588;19;110353;-88
2023/03/28 11:40:13;;;;;;;;;;;12.30;99.90;;;;;;7343390;19;110262;-88
2023/03/28 11:42:44;;;;;;;;;;;12.50;99.90;;;;;;7339977;19;108501;-89
2023/03/28 11:45:19;;;;;;;;;;;12.60;99.90;;;;;;7344773;19;110387;-88
2023/03/28 11:48:06;;;;;;;;;;;12.50;99.90;;;;;;7366335;19;110619;-89
2023/03/28 11:50:52;;;;;;;;;;;12.50;99.90;;;;;;7373218;19;108297;-90
2023/03/28 11:53:25;;;;;;;;;;;12.60;99.90;;;;;;7377803;19;108010;-90
2023/03/28 11:55:57;;;;;;;;;;;12.70;99.90;;;;;;7375493;19;108020;-90
2023/03/28 11:58:27;;;;;;;;;;;12.80;99.90;;;;;;7375800;19;109146;-90
2023/03/28 12:01:01;;;;;;;;;;;12.90;99.90;;;;;;7373782;19;109092;-88
2023/03/28 12:03:38;;;;;;;;;;;13.00;99.90;;;;;;7373963;19;108026;-88
2023/03/28 12:06:15;;;;;;;;;;;12.80;99.90;;;;;;7374736;19;109089;-93
2023/03/28 12:08:46;;;;;;;;;;;12.70;99.90;;;;;;7371907;19;110926;-91
2023/03/28 12:11:23;;;;;;;;;;;12.80;99.90;;;;;;7372738;19;107835;-88
2023/03/28 12:13:56;;;;;;;;;;;12.80;99.90;;;;;;7379208;19;109957;-93
2023/03/28 12:16:40;;;;;;;;;;;12.90;99.90;;;;;;7375328;19;107966;-92
2023/03/28 12:19:12;;;;;;;;;;;12.90;99.90;;;;;;7374992;19;110920;-91
2023/03/28 12:21:54;;;;;;;;;;;13.00;99.90;;;;;;7372890;19;113147;-90
2023/03/28 12:24:28;;;;;;;;;;;13.00;99.90;;;;;;7375364;19;109935;-88
2023/03/28 12:27:05;;;;;;;;;;;13.00;99.90;;;;;;7374908;19;108724;-91
2023/03/28 12:29:39;;;;;;;;;;;13.00;99.90;;;;;;7370549;19;112130;-91
2023/03/28 12:32:25;;;;;;;;;;;13.10;99.90;;;;;;7372221;19;108555;-95
2023/03/28 12:35:11;;;;;;;;;;;13.20;99.90;;;;;;7369724;19;107393;-92
2023/03/28 12:37:51;;;;;;;;;;;13.30;99.90;;;;;;7375540;19;112039;-93
2023/03/28 12:40:35;;;;;;;;;;;13.40;99.90;;;;;;7371817;19;108167;-92
2023/03/28 12:43:05;;;;;;;;;;;13.40;99.90;;;;;;7373322;19;111795;-92
2023/03/28 12:45:37;;;;;;;;;;;13.50;99.90;;;;;;7378148;19;108184;-92
2023/03/28 12:48:08;;;;;;;;;;;13.50;99.90;;;;;;7378004;19;110107;-93
2023/03/28 12:50:46;;;;;;;;;;;13.50;99.90;;;;;;7378901;19;109506;-93
2023/03/28 12:53:16;;;;;;;;;;;13.70;99.90;;;;;;7377335;19;107886;-93
2023/03/28 12:55:47;;;;;;;;;;;13.70;99.90;;;;;;7378612;19;110827;-93
2023/03/28 12:58:22;;;;;;;;;;;13.80;99.90;;;;;;7375458;19;108979;-92
2023/03/28 13:00:57;;;;;;;;;;;13.90;99.90;;;;;;7382994;19;107476;-93
2023/03/28 13:03:43;;;;;;;;;;;13.90;99.90;;;;;;7378252;19;111672;-93
2023/03/28 13:06:28;;;;;;;;;;;14.20;99.90;;;;;;7376763;19;108513;-92
2023/03/28 13:09:04;;;;;;;;;;;14.40;99.90;;;;;;7377685;19;110595;-90
2023/03/28 13:11:31;;;;;;;;;;;14.60;99.90;;;;;;7375786;19;111554;-93
2023/03/28 13:14:04;;;;;;;;;;;14.70;99.90;;;;;;7375748;19;107826;-92
2023/03/28 13:16:51;;;;;;;;;;;14.60;99.90;;;;;;7379543;19;110417;-90
2023/03/28 13:19:20;;;;;;;;;;;14.50;99.90;;;;;;7379895;19;109050;-91
2023/03/28 13:21:54;;;;;;;;;;;14.50;99.90;;;;;;7376871;19;108086;-90
2023/03/28 13:24:24;;;;;;;;;;;14.40;99.90;;;;;;7379639;19;110242;-91
2023/03/28 13:26:52;;;;;;;;;;;14.30;99.90;;;;;;7375302;19;108271;-90
2023/03/28 13:29:20;;;;;;;;;;;14.20;99.90;;;;;;7377020;19;108335;-89
2023/03/28 13:31:47;;;;;;;;;;;14.20;99.90;;;;;;7372920;19;109102;-89
2023/03/28 13:34:22;;;;;;;;;;;14.20;99.90;;;;;;7377266;19;109030;-89
2023/03/28 13:36:52;;;;;;;;;;;14.20;99.90;;;;;;7378593;19;110474;-89
2023/03/28 13:39:23;;;;;;;;;;;14.10;99.90;;;;;;7377629;19;108746;-90
2023/03/28 13:41:51;;;;;;;;;;;14.10;99.90;;;;;;7376450;19;107648;-89
2023/03/28 13:44:30;;;;;;;;;;;14.10;99.90;;;;;;7375450;19;108364;-90
2023/03/28 13:46:57;;;;;;;;;;;14.00;99.90;;;;;;7379808;19;109638;-89
2023/03/28 13:49:27;;;;;;;;;;;14.00;99.90;;;;;;7373881;19;111421;-89
2023/03/28 13:51:54;;;;;;;;;;;13.90;99.90;;;;;;7375341;19;108569;-89
2023/03/28 13:54:22;;;;;;;;;;;13.90;99.90;;;;;;7374305;19;107533;-90
2023/03/28 13:56:50;;;;;;;;;;;14.00;99.90;;;;;;7375872;19;108114;-90
2023/03/28 13:59:21;;;;;;;;;;;13.90;99.90;;;;;;7375933;19;109632;-89
2023/03/28 14:01:48;;;;;;;;;;;14.00;99.90;;;;;;7374538;19;107928;-90
2023/03/28 14:04:20;;;;;;;;;;;13.90;99.90;;;;;;7376172;19;108307;-88
2023/03/28 14:06:47;;;;;;;;;;;13.80;99.90;;;;;;7375726;19;109488;-88
2023/03/28 14:09:20;;;;;;;;;;;13.80;99.90;;;;;;7383440;19;107952;-88
2023/03/28 14:11:48;;;;;;;;;;;13.80;99.90;;;;;;7375584;19;109963;-89
2023/03/28 14:14:22;;;;;;;;;;;13.70;99.90;;;;;;7374000;19;107893;-88
2023/03/28 14:16:50;;;;;;;;;;;13.60;99.90;;;;;;7373252;19;108651;-89
2023/03/28 14:19:19;;;;;;;;;;;13.60;99.90;;;;;;7375014;19;109179;-90
2023/03/28 14:21:47;;;;;;;;;;;13.60;99.90;;;;;;7374320;19;108426;-90
2023/03/28 14:24:20;;;;;;;;;;;13.60;99.90;;;;;;7374348;19;107702;-90
2023/03/28 14:26:48;;;;;;;;;;;13.60;99.90;;;;;;7366952;19;112156;-89
2023/03/28 14:29:19;;;;;;;;;;;13.60;99.90;;;;;;7381517;19;107737;-88
2023/03/28 14:31:47;;;;;;;;;;;13.60;99.90;;;;;;7372917;19;109304;-90
2023/03/28 14:34:16;;;;;;;;;;;13.60;99.90;;;;;;7373857;19;108968;-90
2023/03/28 14:37:13;;;;;;;;;;;13.50;99.90;;;;;;7373233;19;109060;-88